• Join FlightAware (Why Join?)
  • Login
  • US Flag 
 
01:16AM EST


 

Airport Tracker/Info


-or-


 

Live Flight TrackerFlight Track Log ✈ SKW6195 ✈ 14-Nov-2013 ✈ CYVR - KDEN

Flight Track Log - Related Links

Times and Time Zones

All times are in EST time to prevent confusion due to time zone crossing. See the SKW6195 flight status page for this flight to view local times or setup timezone preferences in your user account.

Time Position Orientation Groundspeed Altitude Reporting Facility
EST Latitude Longitude Course Direction KTS MPH feet Rate Location/Type
05:39PM 49.1667 -123.2167 139° Southeast 150 173 1,600  Level Vancouver Center
05:40PM 49.1500 -123.3167 256° West 210 242 4,200 2,520 Climbing Vancouver Center
05:41PM 49.1000 -123.3333 192° South 240 276 6,700 2,460 Climbing Vancouver Center
05:42PM 49.0833 -123.2333 104° East 280 322 9,200 2,520 Climbing Vancouver Center
05:43PM 49.0667 -123.1167 102° East 290 334 11,800 2,040 Climbing Vancouver Center
05:44PM 48.7571 -122.2940 135° Southeast  Level FlightAware Approximate
05:44PM 49.0667 -122.9667 90° East 330 380 13,300  Level Vancouver Center
05:45PM 48.6712 -122.1614 139° Southeast  Level FlightAware Approximate
05:45PM 49.0333 -122.8333 111° Southeast 360 414 15,700  Level Vancouver Center
05:46PM 48.9833 -122.6833 117° Southeast 370 426 17,700 1,800 Climbing Vancouver Center
05:47PM 48.9333 -122.5500 120° Southeast 380 437 19,400 1,620 Climbing Vancouver Center
05:48PM 48.8500 -122.4333 137° Southeast 400 460 21,000 1,620 Climbing Vancouver Center
05:49PM 48.7833 -122.3000 127° Southeast 410 472 22,700 1,500 Climbing Vancouver Center
05:50PM 48.6833 -122.1833 142° Southeast 420 483 24,100 1,200 Climbing Vancouver Center
05:51PM 48.6000 -122.0500 133° Southeast 430 495 25,100 1,200 Climbing Vancouver Center
05:52PM 48.5000 -121.9333 142° Southeast 440 506 26,500 1,080 Climbing Vancouver Center
05:53PM 48.4553 -121.8339 124° Southeast 444 511 27,200 900 Climbing Seattle Center
05:54PM 48.3622 -121.6992 136° Southeast 454 522 28,300 1,080 Climbing Seattle Center
05:55PM 48.2683 -121.5661 137° Southeast 461 531 29,400 1,320 Climbing Seattle Center
05:56PM 48.1750 -121.4336 137° Southeast 463 533 31,000 1,260 Climbing Seattle Center
05:57PM 48.0833 -121.3044 137° Southeast 454 522 32,000 1,080 Climbing Seattle Center
05:58PM 47.9889 -121.1739 137° Southeast 459 528 33,200 1,080 Climbing Seattle Center
05:59PM 47.8794 -121.0197 137° Southeast 453 521 34,300 780 Climbing Seattle Center
06:00PM 47.7858 -120.8886 137° Southeast 459 528 34,800 480 Climbing Seattle Center
06:01PM 47.6944 -120.7631 137° Southeast 465 535 35,300 540 Climbing Seattle Center
06:02PM 47.5975 -120.6289 137° Southeast 472 543 36,000 660 Climbing Seattle Center
06:03PM 47.5019 -120.4967 137° Southeast 474 545 36,700 660 Climbing Seattle Center
06:04PM 47.4053 -120.3653 137° Southeast 474 545 37,400 600 Climbing Seattle Center
06:05PM 47.3106 -120.2350 137° Southeast 472 543 38,000 540 Climbing Seattle Center
06:06PM 47.2139 -120.1056 138° Southeast 470 541 38,500 480 Climbing Seattle Center
06:07PM 47.1372 -119.9531 126° Southeast 474 545 39,000 240 Climbing Seattle Center
06:08PM 47.0808 -119.7869 116° Southeast 463 533 39,000  Level Seattle Center
06:09PM 47.0228 -119.6164 116° Southeast 468 539 39,000  Level Seattle Center
06:10PM 46.9522 -119.4114 117° Southeast 472 543 39,000  Level Seattle Center
06:11PM 46.8925 -119.2369 117° Southeast 479 551 39,000  Level Seattle Center
06:12PM 46.8328 -119.0656 117° Southeast 477 549 39,000  Level Seattle Center
06:13PM 46.7722 -118.8928 117° Southeast 480 552 39,000  Level Seattle Center
06:14PM 46.7125 -118.7214 117° Southeast 479 551 39,000  Level Seattle Center
06:16PM 46.6506 -118.5492 118° Southeast 482 555 39,000  Level Seattle Center
06:17PM 46.5892 -118.3767 117° Southeast 483 556 39,000  Level Seattle Center
06:18PM 46.5281 -118.2053 117° Southeast 482 555 39,000  Level Seattle Center
06:19PM 46.4656 -118.0342 118° Southeast 482 555 39,000  Level Seattle Center
06:20PM 46.4036 -117.8639 118° Southeast 483 556 39,000  Level Seattle Center
06:21PM 46.3431 -117.6967 118° Southeast 475 547 39,000  Level Seattle Center
06:22PM 46.2686 -117.4942 118° Southeast 477 549 39,000  Level Seattle Center
06:23PM 46.2061 -117.3269 118° Southeast 477 549 39,000  Level Seattle Center
06:24PM 46.1433 -117.1578 118° Southeast 479 551 39,000  Level Seattle Center
06:25PM 46.0867 -116.9869 116° Southeast 479 551 39,000  Level Seattle Center
06:26PM 46.0294 -116.8144 115° Southeast 480 552 39,000  Level Seattle Center
06:27PM 45.9722 -116.6439 116° Southeast 477 549 39,000  Level Seattle Center
06:28PM 45.9136 -116.4722 116° Southeast 479 551 39,000  Level Seattle Center
06:29PM 45.8556 -116.3006 116° Southeast 480 552 39,000  Level Seattle Center
06:30PM 45.7967 -116.1283 116° Southeast 482 555 39,000  Level Seattle Center
06:31PM 45.7383 -115.9558 116° Southeast 483 556 39,000  Level Seattle Center
06:32PM 45.6794 -115.7853 116° Southeast 480 552 39,000  Level Seattle Center
06:33PM 45.6064 -115.5786 117° Southeast 485 558 39,000  Level Seattle Center
06:34PM 45.5461 -115.4075 117° Southeast 485 558 39,000  Level Seattle Center
06:35PM 45.4864 -115.2339 116° Southeast 488 562 39,000  Level Seattle Center
06:36PM 45.4256 -115.0597 116° Southeast 493 567 39,000  Level Seattle Center
06:37PM 45.3642 -114.8914 117° Southeast 486 559 39,000  Level Seattle Center
06:38PM 45.3031 -114.7203 117° Southeast 486 559 39,000  Level Seattle Center
06:39PM 45.2419 -114.5503 117° Southeast 486 559 39,000  Level Seattle Center
06:40PM 45.1789 -114.3797 118° Southeast 487 560 39,000  Level Seattle Center
06:41PM 45.1194 -114.2150 117° Southeast 488 562 39,000  Level Seattle Center
06:41PM 45.0767 -114.0972 117° Southeast 486 559 39,000  Level Salt Lake Center
06:42PM 45.0167 -113.9331 117° Southeast 490 564 39,000  Level Salt Lake Center
06:43PM 44.9542 -113.7731 119° Southeast 488 562 39,000  Level Salt Lake Center
06:44PM 44.8817 -113.5853 119° Southeast 491 565 39,000  Level Salt Lake Center
06:46PM 44.8197 -113.4236 118° Southeast 491 565 39,000  Level Salt Lake Center
06:47PM 44.7469 -113.2339 118° Southeast 493 567 39,000  Level Salt Lake Center
06:48PM 44.6836 -113.0706 119° Southeast 495 570 39,000  Level Salt Lake Center
06:49PM 44.6125 -112.8819 118° Southeast 491 565 39,000  Level Salt Lake Center
06:50PM 44.5489 -112.7206 119° Southeast 492 566 39,000  Level Salt Lake Center
06:51PM 44.4750 -112.5311 119° Southeast 497 572 39,000  Level Salt Lake Center
06:52PM 44.4122 -112.3706 119° Southeast 495 570 39,000  Level Salt Lake Center
06:53PM 44.3483 -112.2111 119° Southeast 494 568 39,000  Level Salt Lake Center
06:54PM 44.2736 -112.0228 119° Southeast 499 574 39,000  Level Salt Lake Center
06:55PM 44.2094 -111.8650 120° Southeast 493 567 39,000  Level Salt Lake Center
06:56PM 44.1350 -111.6769 119° Southeast 501 577 39,000  Level Salt Lake Center
06:57PM 44.0706 -111.5211 120° Southeast 494 568 39,000  Level Salt Lake Center
06:58PM 43.9936 -111.3375 120° Southeast 496 571 39,000  Level Salt Lake Center
06:59PM 43.9317 -111.1775 118° Southeast 495 570 39,000  Level Salt Lake Center
07:00PM 43.8633 -110.9856 116° Southeast 498 573 39,000  Level Salt Lake Center
07:01PM 43.8039 -110.8222 117° Southeast 499 574 39,000  Level Salt Lake Center
07:02PM 43.7339 -110.6325 117° Southeast 498 573 39,000  Level Salt Lake Center
07:03PM 43.6742 -110.4694 117° Southeast 498 573 39,000  Level Salt Lake Center
07:04PM 43.6022 -110.2811 118° Southeast 498 573 39,000  Level Salt Lake Center
07:05PM 43.5419 -110.1189 117° Southeast 496 571 39,000  Level Salt Lake Center
07:06PM 43.4747 -109.9369 117° Southeast 498 573 39,000  Level Salt Lake Center
07:07PM 43.4169 -109.7903 118° Southeast 494 568 39,000  Level Salt Lake Center
07:08PM 43.3531 -109.6244 118° Southeast 492 566 39,000  Level Salt Lake Center
07:09PM 43.2678 -109.4294 121° Southeast 499 574 39,000  Level Salt Lake Center
07:10PM 43.1856 -109.2817 127° Southeast 492 566 39,000  Level Salt Lake Center
07:11PM 43.1058 -109.1311 126° Southeast 490 564 39,000  Level Salt Lake Center
07:12PM 43.0250 -108.9828 127° Southeast 489 563 39,000  Level Salt Lake Center
07:13PM 42.9331 -108.8183 127° Southeast 488 562 39,000  Level Salt Lake Center
07:14PM 42.8550 -108.6764 127° Southeast 487 560 39,000  Level Salt Lake Center
07:15PM 42.7619 -108.5072 127° Southeast 496 571 39,000  Level Salt Lake Center
07:16PM 42.6822 -108.3631 127° Southeast 498 573 39,000  Level Salt Lake Center
07:17PM 42.6008 -108.2175 127° Southeast 500 575 39,000  Level Salt Lake Center
07:18PM 42.5067 -108.0508 127° Southeast 499 574 39,000  Level Salt Lake Center
07:19PM 42.4258 -107.9069 127° Southeast 500 575 39,000  Level Salt Lake Center
07:20PM 42.3319 -107.7419 128° Southeast 497 572 39,000  Level Salt Lake Center
07:21PM 42.2644 -107.6228 127° Southeast 497 572 39,000  Level Denver Center
07:22PM 42.1831 -107.4797 127° Southeast 500 575 39,000  Level Denver Center
07:23PM 42.0886 -107.3169 128° Southeast 495 570 39,000  Level Denver Center
07:24PM 42.0058 -107.1744 128° Southeast 501 577 39,000  Level Denver Center
07:25PM 41.9111 -107.0114 128° Southeast 497 572 39,100  Climbing Denver Center
07:26PM 41.8283 -106.8711 128° Southeast 499 574 39,000 -300 Descending Denver Center
07:28PM 41.7461 -106.7319 128° Southeast 498 573 38,600 -780 Descending Denver Center
07:29PM 41.6508 -106.5692 128° Southeast 498 573 37,500 -1,080 Descending Denver Center
07:30PM 41.5600 -106.4172 129° Southeast 500 575 36,400 -1,020 Descending Denver Center
07:31PM 41.4772 -106.2892 131° Southeast 483 556 35,400 -1,020 Descending Denver Center
07:32PM 41.3592 -106.2028 151° Southeast 440 506 34,300 -1,020 Descending Denver Center
07:33PM 41.2442 -106.1536 162° South 429 494 33,300 -1,080 Descending Denver Center
07:34PM 41.1178 -106.0994 162° South 447 514 32,100 -1,140 Descending Denver Center
07:35PM 41.0097 -106.0361 156° South 455 524 31,000 -1,200 Descending Denver Center
07:36PM 40.8986 -105.9683 155° Southeast 443 510 29,700 -1,620 Descending Denver Center
07:37PM 40.8106 -105.8153 127° Southeast 442 509 27,700 -1,980 Descending Denver Center
07:38PM 40.7397 -105.6867 126° Southeast 436 502 25,700 -2,040 Descending Denver Center
07:39PM 40.6689 -105.5586 126° Southeast 434 499 23,600 -2,040 Descending Denver Center
07:40PM 40.6033 -105.4400 126° Southeast 413 475 21,500 -1,980 Descending Denver Center
07:41PM 40.5400 -105.3256 126° Southeast 393 452 19,600 -1,800 Descending Denver Center
07:42PM 40.4864 -105.2131 122° Southeast 371 427 17,800 -1,620 Descending Denver Center
07:43PM 40.4478 -105.0761 110° East 346 398 16,300 -1,320 Descending Denver Center
07:44PM 40.4067 -104.9747 118° Southeast 322 371 15,100 -1,260 Descending Denver Center
07:45PM 40.3489 -104.8736 127° Southeast 322 371 13,700 -1,380 Descending Denver Center
07:46PM 40.2772 -104.8100 146° Southeast 311 358 12,300 -1,380 Descending Denver Center
07:47PM 40.2039 -104.7550 150° Southeast 303 349 10,900 -1,500 Descending Denver Center
07:48PM 40.1289 -104.7017 151° Southeast 287 330 9,300 -1,320 Descending Denver Center
07:49PM 40.0564 -104.6944 176° South 261 300 8,200 -1,080 Descending Denver Center
07:50PM 39.9864 -104.6956 181° South 235 270 7,100 -960 Descending Denver Center
07:51PM 39.9411 -104.6958 180° South 166 191 6,300 -780 Descending Denver Center
07:52PM 39.9056 -104.6958 180° South 131 151 5,600 -480 Descending Denver Center
07:53PM 39.8733 -104.6958 180° South 122 140 5,400 -240 Descending Denver Center
07:55PM 39.8617 -104.6732 180° South  Level Estimated
08:02PM 39.8617 -104.6732 180° South  Level Estimated
08:03PM 39.8617 -104.6732 180° South  Level Estimated